This is the latest recevied weather packets stored in our database for station/object EW1917. If no packets are shown the sender has not sent any weather packets the latest 10 day(s).
| Time | Temp. | Humidity | Pressure | Rain* | Wind** | Luminosity | Snow |
|---|---|---|---|---|---|---|---|
| 1778162870 | 21.11° C | 57% | 1011 hPa | 0 mm | - | 738 W/m² | - |
| 1778161073 | 20.56° C | 60% | 1011.1 hPa | 0 mm | - | 761 W/m² | - |
| 1778160776 | 20.56° C | 58% | 1011.2 hPa | 0 mm | - | 809 W/m² | - |
| 1778158970 | 20° C | 61% | 1011.2 hPa | 0 mm | - | 125 W/m² | - |
| 1778158073 | 20° C | 65% | 1011.3 hPa | 0 mm | - | 853 W/m² | - |
| 1778157771 | 19.44° C | 65% | 1011.3 hPa | 0 mm | - | 188 W/m² | - |
| 1778157174 | 19.44° C | 62% | 1011.3 hPa | 0 mm | - | 267 W/m² | - |
| 1778156579 | 19.44° C | 63% | 1011.4 hPa | 0 mm | - | 907 W/m² | - |
| 1778155970 | 19.44° C | 66% | 1011.4 hPa | 0 mm | - | 882 W/m² | - |
| 1778155370 | 18.89° C | 66% | 1011.5 hPa | 0 mm | - | 932 W/m² | - |
| 1778155070 | 18.89° C | 64% | 1011.5 hPa | 0 mm | - | 248 W/m² | - |
| 1778153873 | 18.89° C | 66% | 1011.7 hPa | 0 mm | - | 896 W/m² | - |
| 1778152375 | 18.89° C | 66% | 1011.8 hPa | 0 mm | - | 976 W/m² | - |
| 1778151479 | 18.33° C | 68% | 1011.9 hPa | 0 mm | - | 276 W/m² | - |
| 1778151173 | 18.33° C | 70% | 1012 hPa | 0 mm | - | 724 W/m² | - |
| 1778150570 | 18.33° C | 69% | 1012.2 hPa | 0 mm | - | 999 W/m² | - |
| 1778150279 | 18.33° C | 71% | 1012.2 hPa | 0 mm | - | 999 W/m² | - |
| 1778149973 | 18.33° C | 73% | 1012.2 hPa | 0 mm | - | 984 W/m² | - |
| 1778149073 | 17.78° C | 73% | 1012.3 hPa | 0 mm | - | 976 W/m² | - |
| 1778148774 | 17.22° C | 78% | 1012.2 hPa | 0 mm | - | 962 W/m² | - |
| 1778148173 | 17.22° C | 76% | 1012.3 hPa | 0 mm | - | 230 W/m² | - |
| 1778147570 | 16.67° C | 76% | 1012.3 hPa | 0 mm | - | 204 W/m² | - |
| 1777652240 | 17.22° C | 33% | 1022 hPa | 0 mm | - | 323 W/m² | - |
| 1777649541 | 17.78° C | 35% | 1021.9 hPa | 0 mm | - | 457 W/m² | - |
| 1777648646 | 17.78° C | 32% | 1021.9 hPa | 0 mm | - | 496 W/m² | - |
* Rain latest hour (hover to see other rain measurements)
** Current wind speed in m/s (hover to see current wind gust speed)